createdAt,value
2023-08-12T00:02:15.495Z,4.47
2023-08-12T00:05:02.364Z,4.63
2023-08-12T00:07:48.980Z,3.67
2023-08-12T00:10:35.796Z,4.77
2023-08-12T00:13:22.669Z,4.17
2023-08-12T00:16:09.338Z,4.40
2023-08-12T00:18:57.156Z,4.20
2023-08-12T00:21:43.704Z,4.57
2023-08-12T00:24:30.254Z,3.97
2023-08-12T00:27:17.474Z,4.10
2023-08-12T00:30:04.458Z,4.10
2023-08-12T00:32:51.001Z,3.50
2023-08-12T00:35:38.807Z,4.10
2023-08-12T00:38:25.645Z,4.87
2023-08-12T00:41:12.300Z,4.53
2023-08-12T00:43:58.926Z,4.30
2023-08-12T00:46:45.843Z,4.37
2023-08-12T00:49:34.629Z,4.37
2023-08-12T00:52:22.790Z,4.40
2023-08-12T00:55:10.159Z,4.47
2023-08-12T00:57:56.741Z,4.30
2023-08-12T01:00:43.540Z,4.80
2023-08-12T01:03:30.330Z,4.50
2023-08-12T01:06:17.361Z,4.70
2023-08-12T01:09:07.275Z,4.57
2023-08-12T01:12:01.840Z,4.07
2023-08-12T01:14:57.229Z,4.40
2023-08-12T01:17:45.458Z,4.63
2023-08-12T01:20:32.983Z,5.90
2023-08-12T01:23:21.666Z,4.27
2023-08-12T01:26:08.349Z,4.30
2023-08-12T01:28:55.003Z,4.67
2023-08-12T01:31:47.466Z,5.77
2023-08-12T01:34:41.584Z,5.40
2023-08-12T01:37:31.197Z,5.77
2023-08-12T01:40:20.451Z,6.23
2023-08-12T01:43:08.396Z,6.23
2023-08-12T01:45:55.406Z,6.50
2023-08-12T01:48:42.221Z,6.97
2023-08-12T01:51:28.999Z,7.07
2023-08-12T01:54:15.576Z,7.17
2023-08-12T01:57:06.450Z,6.97
2023-08-12T01:59:53.904Z,7.87
2023-08-12T02:02:40.453Z,7.50
2023-08-12T02:05:27.553Z,8.53
2023-08-12T02:08:15.110Z,8.00
2023-08-12T02:11:01.596Z,8.60
2023-08-12T02:13:49.409Z,8.83
2023-08-12T02:16:36.175Z,9.17
2023-08-12T02:19:22.753Z,9.23
2023-08-12T02:22:10.846Z,9.03
2023-08-12T02:24:57.621Z,9.03
2023-08-12T02:27:44.850Z,10.17
2023-08-12T02:30:33.008Z,10.00
2023-08-12T02:33:19.626Z,11.13
2023-08-12T02:36:06.947Z,9.10
2023-08-12T02:38:53.396Z,10.43
2023-08-12T02:41:40.052Z,10.10
2023-08-12T02:44:26.625Z,10.63
2023-08-12T02:47:14.987Z,10.10
2023-08-12T02:50:02.046Z,10.80
2023-08-12T02:52:48.529Z,10.33
2023-08-12T02:55:35.204Z,10.33
2023-08-12T02:58:21.738Z,9.80
2023-08-12T03:01:09.060Z,9.93
2023-08-12T03:03:57.338Z,10.00
2023-08-12T03:06:44.107Z,9.53
2023-08-12T03:09:30.773Z,9.60
2023-08-12T03:12:17.433Z,9.60
2023-08-12T03:15:04.418Z,9.87
2023-08-12T03:17:50.925Z,10.57
2023-08-12T03:20:39.278Z,9.30
2023-08-12T03:23:25.924Z,10.17
2023-08-12T03:26:12.795Z,9.63
2023-08-12T03:28:59.322Z,9.90
2023-08-12T03:31:45.968Z,9.87
2023-08-12T03:34:32.571Z,10.50
2023-08-12T03:37:21.039Z,10.07
2023-08-12T03:40:09.811Z,11.20
2023-08-12T03:42:56.295Z,9.83
2023-08-12T03:45:43.454Z,10.13
2023-08-12T03:48:30.123Z,10.27
2023-08-12T03:51:16.690Z,10.20
2023-08-12T03:54:05.036Z,10.63
2023-08-12T03:56:52.012Z,10.70
2023-08-12T03:59:38.607Z,11.63
2023-08-12T04:02:25.098Z,11.00
2023-08-12T04:05:11.695Z,11.67
2023-08-12T04:07:58.460Z,12.13
2023-08-12T04:10:48.743Z,12.33
2023-08-12T04:13:35.229Z,12.07
2023-08-12T04:16:21.814Z,11.50
2023-08-12T04:19:08.730Z,12.17
2023-08-12T04:21:55.179Z,12.50
2023-08-12T04:24:41.840Z,12.67
2023-08-12T04:27:30.616Z,13.20
2023-08-12T04:30:17.863Z,12.60
2023-08-12T04:33:04.650Z,13.23
2023-08-12T04:35:51.394Z,12.70
2023-08-12T04:38:37.924Z,13.43
2023-08-12T04:41:25.243Z,12.77
2023-08-12T04:44:13.302Z,12.77
2023-08-12T04:47:00.122Z,13.67
2023-08-12T04:49:46.689Z,14.20
2023-08-12T04:52:33.412Z,13.63
2023-08-12T04:55:20.115Z,13.63
2023-08-12T04:58:06.811Z,13.63
2023-08-12T05:00:54.927Z,13.57
2023-08-12T05:03:41.783Z,12.90
2023-08-12T05:06:28.317Z,14.20
2023-08-12T05:09:16.194Z,14.23
2023-08-12T05:12:03.176Z,13.43
2023-08-12T05:14:49.698Z,12.83
2023-08-12T05:17:37.531Z,12.93
2023-08-12T05:20:24.563Z,12.90
2023-08-12T05:23:11.444Z,13.67
2023-08-12T05:25:58.078Z,12.77
2023-08-12T05:28:44.695Z,12.63
2023-08-12T05:31:31.859Z,13.80
2023-08-12T05:34:19.990Z,13.30
2023-08-12T05:37:06.864Z,13.00
2023-08-12T05:39:53.410Z,12.47
2023-08-12T05:42:39.998Z,13.30
2023-08-12T05:45:26.961Z,13.40
2023-08-12T05:48:14.004Z,12.70
2023-08-12T05:51:02.378Z,11.73
2023-08-12T05:53:50.232Z,12.27
2023-08-12T05:56:36.878Z,14.00
2023-08-12T05:59:23.530Z,12.57
2023-08-12T06:02:11.107Z,12.23
2023-08-12T06:04:58.298Z,11.73
2023-08-12T06:07:46.133Z,11.83
2023-08-12T06:10:32.848Z,12.00
2023-08-12T06:13:19.297Z,12.00
2023-08-12T06:16:06.374Z,12.37
2023-08-12T06:18:52.971Z,13.07
2023-08-12T06:21:39.634Z,12.47
2023-08-12T06:24:27.492Z,12.30
2023-08-12T06:27:14.337Z,12.87
2023-08-12T06:30:01.454Z,11.83
2023-08-12T06:32:48.077Z,12.83
2023-08-12T06:35:34.502Z,12.73
2023-08-12T06:38:21.027Z,12.30
2023-08-12T06:41:09.264Z,12.87
2023-08-12T06:43:55.990Z,12.77
2023-08-12T06:46:42.611Z,12.47
2023-08-12T06:49:29.473Z,12.53
2023-08-12T06:52:17.197Z,12.87
2023-08-12T06:55:03.774Z,11.80
2023-08-12T06:57:51.646Z,13.50
2023-08-12T07:00:38.614Z,12.47
2023-08-12T07:03:25.368Z,12.57
2023-08-12T07:06:12.063Z,12.60
2023-08-12T07:08:58.718Z,11.93
2023-08-12T07:11:45.212Z,11.93
2023-08-12T07:14:33.196Z,11.57
2023-08-12T07:17:20.253Z,11.80
2023-08-12T07:20:08.848Z,10.13
2023-08-12T07:22:55.358Z,11.37
2023-08-12T07:25:41.975Z,10.70
2023-08-12T07:28:28.418Z,11.83
2023-08-12T07:31:16.360Z,11.23
2023-08-12T07:34:03.046Z,10.83
2023-08-12T07:36:49.752Z,12.10
2023-08-12T07:39:36.670Z,11.60
2023-08-12T07:42:23.206Z,11.23
2023-08-12T07:45:11.159Z,12.20
2023-08-12T07:47:59.780Z,11.47
2023-08-12T07:50:46.548Z,11.37
2023-08-12T07:53:33.459Z,11.50
2023-08-12T07:56:20.022Z,11.77
2023-08-12T07:59:06.822Z,11.77
2023-08-12T08:01:53.393Z,11.27
2023-08-12T08:04:41.365Z,11.43
2023-08-12T08:07:28.191Z,11.50
2023-08-12T08:10:14.601Z,11.67
2023-08-12T08:13:01.239Z,12.17
2023-08-12T08:15:48.336Z,12.27
2023-08-12T08:18:35.353Z,12.37
2023-08-12T08:21:23.600Z,11.83
2023-08-12T08:24:12.451Z,12.83
2023-08-12T08:26:59.904Z,11.90
2023-08-12T08:29:46.784Z,11.80
2023-08-12T08:32:33.485Z,11.90
2023-08-12T08:35:20.209Z,11.13
2023-08-12T08:38:08.392Z,11.57
2023-08-12T08:40:55.269Z,11.50
2023-08-12T08:43:44.868Z,11.23
2023-08-12T08:46:31.984Z,11.30
2023-08-12T08:49:19.754Z,10.73
2023-08-12T08:52:06.633Z,10.80
2023-08-12T08:54:55.288Z,9.50
2023-08-12T08:57:47.889Z,10.57
2023-08-12T09:00:35.841Z,9.67
2023-08-12T09:03:23.535Z,9.67
2023-08-12T09:06:10.841Z,9.87
2023-08-12T09:08:57.969Z,9.53
2023-08-12T09:11:46.635Z,10.10
2023-08-12T09:14:33.330Z,10.13
2023-08-12T09:17:20.184Z,8.97
2023-08-12T09:20:12.370Z,10.27
2023-08-12T09:22:59.630Z,9.10
2023-08-12T09:25:49.327Z,8.97
2023-08-12T09:28:38.588Z,9.50
2023-08-12T09:31:27.565Z,9.60
2023-08-12T09:34:14.074Z,8.97
2023-08-12T09:37:00.974Z,9.50
2023-08-12T09:39:48.832Z,8.53
2023-08-12T09:42:35.673Z,9.27
2023-08-12T09:45:26.112Z,9.33
2023-08-12T09:48:15.658Z,10.10
2023-08-12T09:51:04.624Z,10.07
2023-08-12T09:53:51.851Z,10.63
2023-08-12T09:56:41.668Z,10.70
2023-08-12T09:59:33.203Z,11.17
2023-08-12T10:02:22.530Z,10.03
2023-08-12T10:05:13.698Z,9.53
2023-08-12T10:08:02.871Z,10.37
2023-08-12T10:10:59.217Z,10.60
2023-08-12T10:13:50.747Z,10.87
2023-08-12T10:16:37.375Z,10.40
2023-08-12T10:19:26.319Z,9.97
2023-08-12T10:22:15.333Z,8.80
2023-08-12T10:25:04.625Z,9.80
2023-08-12T10:27:51.721Z,7.70
2023-08-12T10:30:38.674Z,8.97
2023-08-12T10:33:25.720Z,8.60
2023-08-12T10:36:14.827Z,9.00
2023-08-12T10:39:02.337Z,9.67
2023-08-12T10:41:57.833Z,9.10
2023-08-12T10:44:52.623Z,8.00
2023-08-12T10:47:44.986Z,7.53
2023-08-12T10:50:34.029Z,7.60
2023-08-12T10:53:30.538Z,6.83
2023-08-12T10:56:17.474Z,7.90
2023-08-12T10:59:04.390Z,6.57
2023-08-12T11:01:51.027Z,6.70
2023-08-12T11:04:40.232Z,7.70
2023-08-12T11:07:34.890Z,7.63
2023-08-12T11:10:26.408Z,6.07
2023-08-12T11:13:13.255Z,6.97
2023-08-12T11:16:10.130Z,6.77
2023-08-12T11:18:58.244Z,7.17
2023-08-12T11:21:45.953Z,6.87
2023-08-12T11:24:34.625Z,6.90
2023-08-12T11:27:24.123Z,6.27
2023-08-12T11:30:12.480Z,6.33
2023-08-12T11:33:00.524Z,5.93
2023-08-12T11:35:47.800Z,4.93
2023-08-12T11:38:34.810Z,5.23
2023-08-12T11:41:24.892Z,4.57
2023-08-12T11:44:17.967Z,4.70
2023-08-12T11:47:04.932Z,4.97
2023-08-12T11:49:51.509Z,5.07
2023-08-12T11:52:39.030Z,4.47
2023-08-12T11:55:26.442Z,4.43
2023-08-12T11:58:19.721Z,4.10
2023-08-12T12:01:07.626Z,3.63
2023-08-12T12:03:54.603Z,3.77
2023-08-12T12:06:41.480Z,3.00
2023-08-12T12:09:28.147Z,2.40
2023-08-12T12:12:15.161Z,2.80
2023-08-12T12:15:03.388Z,2.80
2023-08-12T12:17:52.556Z,2.30
2023-08-12T12:20:43.922Z,2.43
2023-08-12T12:23:31.344Z,2.10
2023-08-12T12:26:18.347Z,2.20
2023-08-12T12:29:05.807Z,2.03
2023-08-12T12:31:52.272Z,2.20
2023-08-12T12:34:40.763Z,2.23
2023-08-12T12:37:27.784Z,2.10
2023-08-12T12:40:14.421Z,2.00
2023-08-12T12:43:01.171Z,2.10
2023-08-12T12:45:47.729Z,2.43
2023-08-12T12:48:34.294Z,2.40
2023-08-12T12:51:22.701Z,2.40
2023-08-12T12:54:09.262Z,2.20
2023-08-12T12:56:55.840Z,1.90
2023-08-12T12:59:42.389Z,2.00
2023-08-12T13:02:29.123Z,2.03
2023-08-12T13:05:16.336Z,1.83
2023-08-12T13:08:04.424Z,1.90
2023-08-12T13:10:51.213Z,2.10
2023-08-12T13:13:38.127Z,2.00
2023-08-12T13:16:24.843Z,1.83
2023-08-12T13:19:11.304Z,1.90
2023-08-12T13:21:57.926Z,1.97
2023-08-12T13:24:45.990Z,1.93
2023-08-12T13:27:34.014Z,2.20
2023-08-12T13:30:20.538Z,2.03
2023-08-12T13:33:07.642Z,2.30
2023-08-12T13:35:57.173Z,2.30
2023-08-12T13:38:43.854Z,2.30
2023-08-12T13:41:31.812Z,2.40
2023-08-12T13:44:18.700Z,2.43
2023-08-12T13:47:05.293Z,2.50
2023-08-12T13:49:52.485Z,2.53
2023-08-12T13:52:39.302Z,2.30
2023-08-12T13:55:26.009Z,2.50
2023-08-12T13:58:14.335Z,2.37
2023-08-12T14:01:01.090Z,2.30
2023-08-12T14:03:47.667Z,2.80
2023-08-12T14:06:34.933Z,2.70
2023-08-12T14:09:21.522Z,2.53
2023-08-12T14:12:08.701Z,2.40
2023-08-12T14:14:57.027Z,2.70
2023-08-12T14:17:43.965Z,2.60
2023-08-12T14:20:31.614Z,2.83
2023-08-12T14:23:19.299Z,2.80
2023-08-12T14:26:06.245Z,2.53
2023-08-12T14:28:53.072Z,2.97
2023-08-12T14:31:41.733Z,2.87
2023-08-12T14:34:28.267Z,2.77
2023-08-12T14:37:15.598Z,2.43
2023-08-12T14:40:04.061Z,2.60
2023-08-12T14:42:50.916Z,2.20
2023-08-12T14:45:37.411Z,2.37
2023-08-12T14:48:25.712Z,2.43
2023-08-12T14:51:13.451Z,2.37
2023-08-12T14:54:00.551Z,1.67
2023-08-12T14:56:47.387Z,1.90
2023-08-12T14:59:34.527Z,2.30
2023-08-12T15:02:23.322Z,1.80
2023-08-12T15:05:11.675Z,2.10
2023-08-12T15:07:58.441Z,2.10
2023-08-12T15:10:44.926Z,2.20
2023-08-12T15:13:31.425Z,2.10
2023-08-12T15:16:18.078Z,2.00
2023-08-12T15:19:04.968Z,1.80
2023-08-12T15:21:52.998Z,1.90
2023-08-12T15:24:39.784Z,2.00
2023-08-12T15:27:26.407Z,2.20
2023-08-12T15:30:13.499Z,2.03
2023-08-12T15:32:59.928Z,2.43
2023-08-12T15:35:46.400Z,1.77
2023-08-12T15:38:34.917Z,1.70
2023-08-12T15:41:23.069Z,1.60
2023-08-12T15:44:10.746Z,1.67
2023-08-12T15:46:57.511Z,1.77
2023-08-12T15:49:44.038Z,1.70
2023-08-12T15:52:34.034Z,1.70
2023-08-12T15:55:21.966Z,1.83
2023-08-12T15:58:08.692Z,1.80
2023-08-12T16:00:55.250Z,2.07
2023-08-12T16:03:42.047Z,2.10
2023-08-12T16:06:29.578Z,1.93
2023-08-12T16:09:19.390Z,1.70
2023-08-12T16:12:08.390Z,1.80
2023-08-12T16:14:55.086Z,1.80
2023-08-12T16:17:41.846Z,2.13
2023-08-12T16:20:28.471Z,2.47
2023-08-12T16:23:14.902Z,2.20
2023-08-12T16:26:01.720Z,2.00
2023-08-12T16:28:49.752Z,3.03
2023-08-12T16:31:40.027Z,2.00
2023-08-12T16:34:27.195Z,2.13
2023-08-12T16:37:21.491Z,2.27
2023-08-12T16:40:11.067Z,2.40
2023-08-12T16:42:58.025Z,1.60
2023-08-12T16:45:46.056Z,1.67
2023-08-12T16:48:32.688Z,1.07
2023-08-12T16:51:19.288Z,1.10
2023-08-12T16:54:06.107Z,1.17
2023-08-12T16:56:52.815Z,1.20
2023-08-12T16:59:39.747Z,1.23
2023-08-12T17:02:28.826Z,1.23
2023-08-12T17:05:15.412Z,1.27
2023-08-12T17:08:02.022Z,1.73
2023-08-12T17:10:48.592Z,1.23
2023-08-12T17:13:35.094Z,1.30
2023-08-12T17:16:21.621Z,1.30
2023-08-12T17:19:09.572Z,1.23
2023-08-12T17:21:56.571Z,1.40
2023-08-12T17:24:43.544Z,1.90
2023-08-12T17:27:30.370Z,1.70
2023-08-12T17:30:17.266Z,1.33
2023-08-12T17:33:04.549Z,1.40
2023-08-12T17:35:52.632Z,1.33
2023-08-12T17:38:39.495Z,1.30
2023-08-12T17:41:26.057Z,1.03
2023-08-12T17:44:12.803Z,1.10
2023-08-12T17:46:59.426Z,1.30
2023-08-12T17:49:45.997Z,1.20
2023-08-12T17:52:33.911Z,1.13
2023-08-12T17:55:21.108Z,1.20
2023-08-12T17:58:07.902Z,1.20
2023-08-12T18:00:54.488Z,1.50
2023-08-12T18:03:41.318Z,1.60
2023-08-12T18:06:28.125Z,1.30
2023-08-12T18:09:16.646Z,1.40
2023-08-12T18:12:03.411Z,1.37
2023-08-12T18:14:50.040Z,1.50
2023-08-12T18:17:36.591Z,1.80
2023-08-12T18:20:23.520Z,1.80
2023-08-12T18:23:10.252Z,2.07
2023-08-12T18:25:58.112Z,1.87
2023-08-12T18:28:45.024Z,1.80
2023-08-12T18:31:31.870Z,2.07
2023-08-12T18:34:18.375Z,1.80
2023-08-12T18:37:05.139Z,1.40
2023-08-12T18:39:52.061Z,1.70
2023-08-12T18:42:40.158Z,1.97
2023-08-12T18:45:26.996Z,1.70
2023-08-12T18:48:13.633Z,1.73
2023-08-12T18:51:00.295Z,1.73
2023-08-12T18:53:46.708Z,1.80
2023-08-12T18:56:33.408Z,1.57
2023-08-12T18:59:23.245Z,1.67
2023-08-12T19:02:10.806Z,1.63
2023-08-12T19:04:57.525Z,1.50
2023-08-12T19:07:44.360Z,1.70
2023-08-12T19:10:30.808Z,1.77
2023-08-12T19:13:17.582Z,2.00
2023-08-12T19:16:06.081Z,1.50
2023-08-12T19:18:52.790Z,1.70
2023-08-12T19:21:39.312Z,1.70
2023-08-12T19:24:25.844Z,1.40
2023-08-12T19:27:12.571Z,1.93
2023-08-12T19:29:59.091Z,1.70
2023-08-12T19:32:51.434Z,1.67
2023-08-12T19:35:38.280Z,1.93
2023-08-12T19:38:25.085Z,1.83
2023-08-12T19:41:11.856Z,1.70
2023-08-12T19:44:00.180Z,1.80
2023-08-12T19:46:46.937Z,1.50
2023-08-12T19:49:34.632Z,1.40
2023-08-12T19:52:21.476Z,1.60
2023-08-12T19:55:09.727Z,1.50
2023-08-12T19:57:56.617Z,1.50
2023-08-12T20:00:43.478Z,1.70
2023-08-12T20:03:30.284Z,1.67
2023-08-12T20:06:18.664Z,2.03
2023-08-12T20:09:07.495Z,1.67
2023-08-12T20:11:53.947Z,1.77
2023-08-12T20:14:40.692Z,1.87
2023-08-12T20:17:27.395Z,2.07
2023-08-12T20:20:18.194Z,1.67
2023-08-12T20:23:06.901Z,1.70
2023-08-12T20:25:54.418Z,2.20
2023-08-12T20:28:41.051Z,2.23
2023-08-12T20:31:27.638Z,2.57
2023-08-12T20:34:14.184Z,2.00
2023-08-12T20:37:01.878Z,2.13
2023-08-12T20:39:50.793Z,1.90
2023-08-12T20:42:37.662Z,2.70
2023-08-12T20:45:25.020Z,2.20
2023-08-12T20:48:11.878Z,2.00
2023-08-12T20:50:58.415Z,2.57
2023-08-12T20:53:45.303Z,1.90
2023-08-12T20:56:33.319Z,2.60
2023-08-12T20:59:20.020Z,2.50
2023-08-12T21:02:08.048Z,2.67
2023-08-12T21:04:54.595Z,2.60
2023-08-12T21:07:41.359Z,2.47
2023-08-12T21:10:28.217Z,2.27
2023-08-12T21:13:16.493Z,2.50
2023-08-12T21:16:03.502Z,2.53
2023-08-12T21:18:50.117Z,2.60
2023-08-12T21:21:36.817Z,2.60
2023-08-12T21:24:23.389Z,2.63
2023-08-12T21:27:09.906Z,2.70
2023-08-12T21:29:58.002Z,2.87
2023-08-12T21:32:44.917Z,2.57
2023-08-12T21:35:31.474Z,2.53
2023-08-12T21:38:18.105Z,3.10
2023-08-12T21:41:04.824Z,2.67
2023-08-12T21:43:51.851Z,2.70
2023-08-12T21:46:39.882Z,2.80
2023-08-12T21:49:26.744Z,2.80
2023-08-12T21:52:13.462Z,3.10
2023-08-12T21:55:00.393Z,3.60
2023-08-12T21:57:47.242Z,3.53
2023-08-12T22:00:34.035Z,4.03
2023-08-12T22:03:21.867Z,4.07
2023-08-12T22:06:08.889Z,4.00
2023-08-12T22:08:55.496Z,4.93
2023-08-12T22:11:42.000Z,4.77
2023-08-12T22:14:28.453Z,4.43
2023-08-12T22:17:15.098Z,4.73
2023-08-12T22:20:05.397Z,5.00
2023-08-12T22:22:51.878Z,5.27
2023-08-12T22:25:38.421Z,5.17
2023-08-12T22:28:25.045Z,5.40
2023-08-12T22:31:11.577Z,4.93
2023-08-12T22:33:59.396Z,5.10
2023-08-12T22:36:47.503Z,4.77
2023-08-12T22:39:34.329Z,4.90
2023-08-12T22:42:20.924Z,4.90
2023-08-12T22:45:09.512Z,4.40
2023-08-12T22:47:56.434Z,5.17
2023-08-12T22:50:43.320Z,4.90
2023-08-12T22:53:31.286Z,4.77
2023-08-12T22:56:18.478Z,4.50
2023-08-12T22:59:05.321Z,4.77
2023-08-12T23:01:51.917Z,5.07
2023-08-12T23:04:38.672Z,4.70
2023-08-12T23:07:25.764Z,3.77
2023-08-12T23:10:14.300Z,3.90
2023-08-12T23:13:01.800Z,4.00
2023-08-12T23:15:48.657Z,3.90
2023-08-12T23:18:35.326Z,4.13
2023-08-12T23:21:21.816Z,3.93
2023-08-12T23:24:09.080Z,3.73
2023-08-12T23:26:57.280Z,3.83
2023-08-12T23:29:44.356Z,3.77
2023-08-12T23:32:31.650Z,4.10
2023-08-12T23:35:19.106Z,4.30
2023-08-12T23:38:06.367Z,4.00
2023-08-12T23:40:53.295Z,4.27
2023-08-12T23:43:41.570Z,3.53
2023-08-12T23:46:28.834Z,4.10
2023-08-12T23:49:15.507Z,3.60
2023-08-12T23:52:02.269Z,3.13
2023-08-12T23:54:48.739Z,3.77
2023-08-12T23:57:35.272Z,3.50
